sensor_id;sensor_type;location;lat;lon;timestamp;temperature;humidity
52765;DHT22;38650;44.536;18.664;2023-02-02T00:01:20;4.70;99.90
52765;DHT22;38650;44.536;18.664;2023-02-02T00:03:46;4.70;99.90
52765;DHT22;38650;44.536;18.664;2023-02-02T00:06:16;4.70;99.90
52765;DHT22;38650;44.536;18.664;2023-02-02T00:08:42;4.70;99.90
52765;DHT22;38650;44.536;18.664;2023-02-02T00:11:08;4.80;99.90
52765;DHT22;38650;44.536;18.664;2023-02-02T00:13:33;4.70;99.90
52765;DHT22;38650;44.536;18.664;2023-02-02T00:18:55;4.70;99.90
52765;DHT22;38650;44.536;18.664;2023-02-02T00:21:21;4.70;99.90
52765;DHT22;38650;44.536;18.664;2023-02-02T00:23:47;4.70;99.90
52765;DHT22;38650;44.536;18.664;2023-02-02T00:26:14;4.70;99.90
52765;DHT22;38650;44.536;18.664;2023-02-02T00:28:39;4.70;99.90
52765;DHT22;38650;44.536;18.664;2023-02-02T00:31:05;4.70;99.90
52765;DHT22;38650;44.536;18.664;2023-02-02T00:33:31;4.70;99.90
52765;DHT22;38650;44.536;18.664;2023-02-02T00:35:57;4.80;99.90
52765;DHT22;38650;44.536;18.664;2023-02-02T00:38:22;4.80;99.90
52765;DHT22;38650;44.536;18.664;2023-02-02T00:40:48;4.80;99.90
52765;DHT22;38650;44.536;18.664;2023-02-02T00:43:14;4.70;99.90
52765;DHT22;38650;44.536;18.664;2023-02-02T00:45:40;4.70;99.90
52765;DHT22;38650;44.536;18.664;2023-02-02T00:48:05;4.70;99.90
52765;DHT22;38650;44.536;18.664;2023-02-02T00:50:32;4.60;99.90
52765;DHT22;38650;44.536;18.664;2023-02-02T00:52:57;4.60;99.90
52765;DHT22;38650;44.536;18.664;2023-02-02T00:55:24;4.60;99.90
52765;DHT22;38650;44.536;18.664;2023-02-02T00:57:51;4.60;99.90
52765;DHT22;38650;44.536;18.664;2023-02-02T01:00:22;4.60;99.90
52765;DHT22;38650;44.536;18.664;2023-02-02T01:02:49;4.60;99.90
52765;DHT22;38650;44.536;18.664;2023-02-02T01:05:16;4.60;99.90
52765;DHT22;38650;44.536;18.664;2023-02-02T01:07:41;4.60;99.90
52765;DHT22;38650;44.536;18.664;2023-02-02T01:10:12;4.40;99.90
52765;DHT22;38650;44.536;18.664;2023-02-02T01:12:38;4.40;99.90
52765;DHT22;38650;44.536;18.664;2023-02-02T01:15:05;4.40;99.90
52765;DHT22;38650;44.536;18.664;2023-02-02T01:17:31;4.40;99.90
52765;DHT22;38650;44.536;18.664;2023-02-02T01:19:56;4.40;99.90
52765;DHT22;38650;44.536;18.664;2023-02-02T01:22:22;4.30;99.90
52765;DHT22;38650;44.536;18.664;2023-02-02T01:24:48;4.30;99.90
52765;DHT22;38650;44.536;18.664;2023-02-02T01:27:13;4.30;99.90
52765;DHT22;38650;44.536;18.664;2023-02-02T01:29:39;4.30;99.90
52765;DHT22;38650;44.536;18.664;2023-02-02T01:32:05;4.40;99.90
52765;DHT22;38650;44.536;18.664;2023-02-02T01:34:31;4.40;99.90
52765;DHT22;38650;44.536;18.664;2023-02-02T01:36:57;4.40;99.90
52765;DHT22;38650;44.536;18.664;2023-02-02T01:39:23;4.40;99.90
52765;DHT22;38650;44.536;18.664;2023-02-02T01:41:48;4.40;99.90
52765;DHT22;38650;44.536;18.664;2023-02-02T01:47:19;4.30;99.90
52765;DHT22;38650;44.536;18.664;2023-02-02T01:49:46;4.30;99.90
52765;DHT22;38650;44.536;18.664;2023-02-02T01:52:14;4.20;99.90
52765;DHT22;38650;44.536;18.664;2023-02-02T01:54:52;4.20;99.90
52765;DHT22;38650;44.536;18.664;2023-02-02T01:59:52;4.20;99.90
52765;DHT22;38650;44.536;18.664;2023-02-02T02:02:18;4.20;99.90
52765;DHT22;38650;44.536;18.664;2023-02-02T02:04:44;4.30;99.90
52765;DHT22;38650;44.536;18.664;2023-02-02T02:07:11;4.30;99.90
52765;DHT22;38650;44.536;18.664;2023-02-02T02:09:37;4.30;99.90
52765;DHT22;38650;44.536;18.664;2023-02-02T02:12:05;4.30;99.90
52765;DHT22;38650;44.536;18.664;2023-02-02T02:14:37;4.20;99.90
52765;DHT22;38650;44.536;18.664;2023-02-02T02:29:40;4.40;99.90
52765;DHT22;38650;44.536;18.664;2023-02-02T02:32:37;4.40;99.90
52765;DHT22;38650;44.536;18.664;2023-02-02T02:40:34;4.10;99.90
52765;DHT22;38650;44.536;18.664;2023-02-02T02:45:49;4.10;99.90
52765;DHT22;38650;44.536;18.664;2023-02-02T02:48:15;4.10;99.90
52765;DHT22;38650;44.536;18.664;2023-02-02T02:50:40;4.10;99.90
52765;DHT22;38650;44.536;18.664;2023-02-02T02:53:13;4.00;99.90
52765;DHT22;38650;44.536;18.664;2023-02-02T02:56:07;4.00;99.90
52765;DHT22;38650;44.536;18.664;2023-02-02T03:01:33;4.00;99.90
52765;DHT22;38650;44.536;18.664;2023-02-02T03:05:03;4.10;99.90
52765;DHT22;38650;44.536;18.664;2023-02-02T03:07:26;4.10;99.90
52765;DHT22;38650;44.536;18.664;2023-02-02T03:09:55;4.10;99.90
52765;DHT22;38650;44.536;18.664;2023-02-02T03:12:22;4.10;99.90
52765;DHT22;38650;44.536;18.664;2023-02-02T03:14:48;4.00;99.90
52765;DHT22;38650;44.536;18.664;2023-02-02T03:17:14;4.00;99.90
52765;DHT22;38650;44.536;18.664;2023-02-02T03:19:39;4.00;99.90
52765;DHT22;38650;44.536;18.664;2023-02-02T03:22:05;3.90;99.90
52765;DHT22;38650;44.536;18.664;2023-02-02T03:24:31;3.80;99.90
52765;DHT22;38650;44.536;18.664;2023-02-02T03:26:57;3.60;99.90
52765;DHT22;38650;44.536;18.664;2023-02-02T03:29:22;3.50;99.90
52765;DHT22;38650;44.536;18.664;2023-02-02T03:31:48;3.40;99.90
52765;DHT22;38650;44.536;18.664;2023-02-02T03:34:14;3.40;99.90
52765;DHT22;38650;44.536;18.664;2023-02-02T03:36:40;3.40;99.90
52765;DHT22;38650;44.536;18.664;2023-02-02T03:39:06;3.30;99.90
52765;DHT22;38650;44.536;18.664;2023-02-02T03:41:31;3.40;99.90
52765;DHT22;38650;44.536;18.664;2023-02-02T03:43:57;3.30;99.90
52765;DHT22;38650;44.536;18.664;2023-02-02T03:46:23;3.30;99.90
52765;DHT22;38650;44.536;18.664;2023-02-02T03:48:48;3.30;99.90
52765;DHT22;38650;44.536;18.664;2023-02-02T03:51:14;3.30;99.90
52765;DHT22;38650;44.536;18.664;2023-02-02T03:53:41;3.30;99.90
52765;DHT22;38650;44.536;18.664;2023-02-02T03:56:12;3.40;99.90
52765;DHT22;38650;44.536;18.664;2023-02-02T03:58:38;3.50;99.90
52765;DHT22;38650;44.536;18.664;2023-02-02T04:01:06;3.40;99.90
52765;DHT22;38650;44.536;18.664;2023-02-02T04:03:33;3.40;99.90
52765;DHT22;38650;44.536;18.664;2023-02-02T04:05:59;3.40;99.90
52765;DHT22;38650;44.536;18.664;2023-02-02T04:08:24;3.30;99.90
52765;DHT22;38650;44.536;18.664;2023-02-02T04:10:50;3.30;99.90
52765;DHT22;38650;44.536;18.664;2023-02-02T04:13:16;3.30;99.90
52765;DHT22;38650;44.536;18.664;2023-02-02T04:15:41;3.30;99.90
52765;DHT22;38650;44.536;18.664;2023-02-02T04:18:07;3.30;99.90
52765;DHT22;38650;44.536;18.664;2023-02-02T04:20:33;3.30;99.90
52765;DHT22;38650;44.536;18.664;2023-02-02T04:22:58;3.30;99.90
52765;DHT22;38650;44.536;18.664;2023-02-02T04:25:24;3.20;99.90
52765;DHT22;38650;44.536;18.664;2023-02-02T04:27:50;3.20;99.90
52765;DHT22;38650;44.536;18.664;2023-02-02T04:30:16;3.20;99.90
52765;DHT22;38650;44.536;18.664;2023-02-02T04:32:42;3.20;99.90
52765;DHT22;38650;44.536;18.664;2023-02-02T04:35:08;3.20;99.90
52765;DHT22;38650;44.536;18.664;2023-02-02T04:37:33;3.30;99.90
52765;DHT22;38650;44.536;18.664;2023-02-02T04:39:59;3.30;99.90
52765;DHT22;38650;44.536;18.664;2023-02-02T04:42:25;3.30;99.90
52765;DHT22;38650;44.536;18.664;2023-02-02T04:44:50;3.20;99.90
52765;DHT22;38650;44.536;18.664;2023-02-02T04:47:16;3.30;99.90
52765;DHT22;38650;44.536;18.664;2023-02-02T04:49:42;3.30;99.90
52765;DHT22;38650;44.536;18.664;2023-02-02T04:52:09;3.40;99.90
52765;DHT22;38650;44.536;18.664;2023-02-02T04:54:35;3.40;99.90
52765;DHT22;38650;44.536;18.664;2023-02-02T04:57:01;3.30;99.90
52765;DHT22;38650;44.536;18.664;2023-02-02T04:59:28;3.30;99.90
52765;DHT22;38650;44.536;18.664;2023-02-02T05:01:57;3.30;99.90
52765;DHT22;38650;44.536;18.664;2023-02-02T05:04:23;3.20;99.90
52765;DHT22;38650;44.536;18.664;2023-02-02T05:06:49;3.20;99.90
52765;DHT22;38650;44.536;18.664;2023-02-02T05:09:15;3.20;99.90
52765;DHT22;38650;44.536;18.664;2023-02-02T05:11:40;3.20;99.90
52765;DHT22;38650;44.536;18.664;2023-02-02T05:14:09;3.20;99.90
52765;DHT22;38650;44.536;18.664;2023-02-02T05:16:35;3.30;99.90
52765;DHT22;38650;44.536;18.664;2023-02-02T05:19:00;3.30;99.90
52765;DHT22;38650;44.536;18.664;2023-02-02T05:21:26;3.40;99.90
52765;DHT22;38650;44.536;18.664;2023-02-02T05:23:52;3.40;99.90
52765;DHT22;38650;44.536;18.664;2023-02-02T05:26:22;3.40;99.90
52765;DHT22;38650;44.536;18.664;2023-02-02T05:28:49;3.40;99.90
52765;DHT22;38650;44.536;18.664;2023-02-02T05:31:15;3.40;99.90
52765;DHT22;38650;44.536;18.664;2023-02-02T05:33:41;3.40;99.90
52765;DHT22;38650;44.536;18.664;2023-02-02T05:36:06;3.40;99.90
52765;DHT22;38650;44.536;18.664;2023-02-02T05:38:32;3.30;99.90
52765;DHT22;38650;44.536;18.664;2023-02-02T05:40:58;3.40;99.90
52765;DHT22;38650;44.536;18.664;2023-02-02T05:43:25;3.30;99.90
52765;DHT22;38650;44.536;18.664;2023-02-02T05:45:51;3.30;99.90
52765;DHT22;38650;44.536;18.664;2023-02-02T05:48:17;3.20;99.90
52765;DHT22;38650;44.536;18.664;2023-02-02T05:50:45;3.10;99.90
52765;DHT22;38650;44.536;18.664;2023-02-02T05:53:15;3.10;99.90
52765;DHT22;38650;44.536;18.664;2023-02-02T05:55:41;3.10;99.90
52765;DHT22;38650;44.536;18.664;2023-02-02T05:58:06;3.10;99.90
52765;DHT22;38650;44.536;18.664;2023-02-02T06:00:32;3.10;99.90
52765;DHT22;38650;44.536;18.664;2023-02-02T06:02:58;3.10;99.90
52765;DHT22;38650;44.536;18.664;2023-02-02T06:05:24;3.10;99.90
52765;DHT22;38650;44.536;18.664;2023-02-02T06:07:49;3.20;99.90
52765;DHT22;38650;44.536;18.664;2023-02-02T06:10:15;3.20;99.90
52765;DHT22;38650;44.536;18.664;2023-02-02T06:12:41;3.20;99.90
52765;DHT22;38650;44.536;18.664;2023-02-02T07:41:12;3.00;99.90
52765;DHT22;38650;44.536;18.664;2023-02-02T07:43:38;5.30;99.90
52765;DHT22;38650;44.536;18.664;2023-02-02T07:46:06;7.40;99.90
52765;DHT22;38650;44.536;18.664;2023-02-02T07:48:33;8.50;99.90
52765;DHT22;38650;44.536;18.664;2023-02-02T07:51:06;10.60;92.40
52765;DHT22;38650;44.536;18.664;2023-02-02T07:53:32;12.20;88.30
52765;DHT22;38650;44.536;18.664;2023-02-02T07:56:19;13.70;73.70
52765;DHT22;38650;44.536;18.664;2023-02-02T07:58:45;14.90;69.20
52765;DHT22;38650;44.536;18.664;2023-02-02T08:01:13;15.70;61.70
52765;DHT22;38650;44.536;18.664;2023-02-02T08:03:39;16.30;59.70
52765;DHT22;38650;44.536;18.664;2023-02-02T08:08:39;16.30;54.90
52765;DHT22;38650;44.536;18.664;2023-02-02T08:11:08;16.30;56.20
52765;DHT22;38650;44.536;18.664;2023-02-02T08:13:34;16.40;54.90
52765;DHT22;38650;44.536;18.664;2023-02-02T08:16:00;16.70;52.10
52765;DHT22;38650;44.536;18.664;2023-02-02T08:18:26;16.30;52.30
52765;DHT22;38650;44.536;18.664;2023-02-02T08:20:51;15.60;55.30
52765;DHT22;38650;44.536;18.664;2023-02-02T08:23:18;16.10;56.50
52765;DHT22;38650;44.536;18.664;2023-02-02T08:25:49;16.20;55.60
52765;DHT22;38650;44.536;18.664;2023-02-02T08:28:15;15.90;55.70
52765;DHT22;38650;44.536;18.664;2023-02-02T08:30:41;15.30;55.20
52765;DHT22;38650;44.536;18.664;2023-02-02T08:33:07;14.40;56.70
52765;DHT22;38650;44.536;18.664;2023-02-02T08:35:33;14.10;57.80
52765;DHT22;38650;44.536;18.664;2023-02-02T08:37:58;14.20;59.70
52765;DHT22;38650;44.536;18.664;2023-02-02T08:40:28;14.90;58.90
52765;DHT22;38650;44.536;18.664;2023-02-02T08:42:54;14.90;56.60
52765;DHT22;38650;44.536;18.664;2023-02-02T08:45:21;13.70;57.60
52765;DHT22;38650;44.536;18.664;2023-02-02T08:47:46;13.20;59.90
52765;DHT22;38650;44.536;18.664;2023-02-02T08:50:12;12.70;61.70
52765;DHT22;38650;44.536;18.664;2023-02-02T08:52:38;12.60;62.30
52765;DHT22;38650;44.536;18.664;2023-02-02T08:55:03;13.10;62.90
52765;DHT22;38650;44.536;18.664;2023-02-02T08:57:29;14.30;59.30
52765;DHT22;38650;44.536;18.664;2023-02-02T08:59:57;13.20;59.50
52765;DHT22;38650;44.536;18.664;2023-02-02T09:02:23;12.40;61.80
52765;DHT22;38650;44.536;18.664;2023-02-02T09:04:49;12.10;65.00
52765;DHT22;38650;44.536;18.664;2023-02-02T09:07:14;12.60;66.80
52765;DHT22;38650;44.536;18.664;2023-02-02T09:09:40;12.70;66.00
52765;DHT22;38650;44.536;18.664;2023-02-02T09:12:06;12.40;64.20
52765;DHT22;38650;44.536;18.664;2023-02-02T09:14:32;12.10;65.00
52765;DHT22;38650;44.536;18.664;2023-02-02T09:16:58;11.90;65.50
52765;DHT22;38650;44.536;18.664;2023-02-02T09:19:24;11.60;66.30
52765;DHT22;38650;44.536;18.664;2023-02-02T09:21:50;11.20;67.90
52765;DHT22;38650;44.536;18.664;2023-02-02T09:24:17;10.80;67.60
52765;DHT22;38650;44.536;18.664;2023-02-02T09:26:44;10.60;68.30
52765;DHT22;38650;44.536;18.664;2023-02-02T09:29:15;10.60;71.20
52765;DHT22;38650;44.536;18.664;2023-02-02T09:31:42;10.90;70.10
52765;DHT22;38650;44.536;18.664;2023-02-02T09:34:10;10.90;68.30
52765;DHT22;38650;44.536;18.664;2023-02-02T09:36:37;10.90;69.30
52765;DHT22;38650;44.536;18.664;2023-02-02T09:39:05;10.80;68.90
52765;DHT22;38650;44.536;18.664;2023-02-02T09:49:54;10.90;71.30
52765;DHT22;38650;44.536;18.664;2023-02-02T09:54:49;11.20;72.00
52765;DHT22;38650;44.536;18.664;2023-02-02T09:57:23;11.30;71.10
52765;DHT22;38650;44.536;18.664;2023-02-02T09:59:51;11.40;71.30
52765;DHT22;38650;44.536;18.664;2023-02-02T10:02:41;11.60;72.00
52765;DHT22;38650;44.536;18.664;2023-02-02T10:05:18;11.60;71.80
52765;DHT22;38650;44.536;18.664;2023-02-02T10:07:54;11.90;71.40
52765;DHT22;38650;44.536;18.664;2023-02-02T10:10:27;12.00;70.40
52765;DHT22;38650;44.536;18.664;2023-02-02T10:13:04;11.90;69.50
52765;DHT22;38650;44.536;18.664;2023-02-02T10:24:26;11.30;69.30
52765;DHT22;38650;44.536;18.664;2023-02-02T10:26:57;11.40;70.60
52765;DHT22;38650;44.536;18.664;2023-02-02T10:37:41;12.40;66.90
52765;DHT22;38650;44.536;18.664;2023-02-02T10:46:04;12.30;65.70
52765;DHT22;38650;44.536;18.664;2023-02-02T10:48:34;12.30;64.50
52765;DHT22;38650;44.536;18.664;2023-02-02T10:51:09;12.50;67.20
52765;DHT22;38650;44.536;18.664;2023-02-02T10:53:36;12.50;64.90
52765;DHT22;38650;44.536;18.664;2023-02-02T10:56:07;12.80;64.10
52765;DHT22;38650;44.536;18.664;2023-02-02T10:58:51;13.00;63.20
52765;DHT22;38650;44.536;18.664;2023-02-02T11:01:20;12.90;63.50
52765;DHT22;38650;44.536;18.664;2023-02-02T11:03:48;12.50;61.60
52765;DHT22;38650;44.536;18.664;2023-02-02T11:06:35;12.30;64.00
52765;DHT22;38650;44.536;18.664;2023-02-02T11:09:27;12.20;63.80
52765;DHT22;38650;44.536;18.664;2023-02-02T11:12:33;12.50;64.50
52765;DHT22;38650;44.536;18.664;2023-02-02T11:15:03;12.60;64.10
52765;DHT22;38650;44.536;18.664;2023-02-02T11:17:30;12.80;65.40
52765;DHT22;38650;44.536;18.664;2023-02-02T11:19:56;12.90;62.80
52765;DHT22;38650;44.536;18.664;2023-02-02T11:22:37;12.80;63.00
52765;DHT22;38650;44.536;18.664;2023-02-02T11:25:24;12.80;62.60
52765;DHT22;38650;44.536;18.664;2023-02-02T11:27:50;12.60;61.60
52765;DHT22;38650;44.536;18.664;2023-02-02T11:30:33;12.30;62.50
52765;DHT22;38650;44.536;18.664;2023-02-02T11:33:31;11.80;63.20
52765;DHT22;38650;44.536;18.664;2023-02-02T11:36:01;11.70;63.30
52765;DHT22;38650;44.536;18.664;2023-02-02T11:38:28;11.40;64.10
52765;DHT22;38650;44.536;18.664;2023-02-02T11:41:06;11.30;64.70
52765;DHT22;38650;44.536;18.664;2023-02-02T11:43:48;11.30;63.90
52765;DHT22;38650;44.536;18.664;2023-02-02T11:46:18;11.30;64.40
52765;DHT22;38650;44.536;18.664;2023-02-02T11:49:13;11.00;64.70
52765;DHT22;38650;44.536;18.664;2023-02-02T11:51:41;11.10;64.00
52765;DHT22;38650;44.536;18.664;2023-02-02T11:54:17;11.10;64.40
52765;DHT22;38650;44.536;18.664;2023-02-02T11:56:51;11.10;65.00
52765;DHT22;38650;44.536;18.664;2023-02-02T11:59:31;11.10;64.40
52765;DHT22;38650;44.536;18.664;2023-02-02T12:04:48;11.30;64.40
52765;DHT22;38650;44.536;18.664;2023-02-02T12:07:26;11.40;63.60
52765;DHT22;38650;44.536;18.664;2023-02-02T12:09:55;11.40;64.10
52765;DHT22;38650;44.536;18.664;2023-02-02T12:18:25;11.20;65.20
52765;DHT22;38650;44.536;18.664;2023-02-02T12:21:05;11.30;65.00
52765;DHT22;38650;44.536;18.664;2023-02-02T12:23:41;11.20;65.60
52765;DHT22;38650;44.536;18.664;2023-02-02T12:26:22;11.10;65.20
52765;DHT22;38650;44.536;18.664;2023-02-02T12:37:30;10.70;67.30
52765;DHT22;38650;44.536;18.664;2023-02-02T12:46:17;10.50;68.00
52765;DHT22;38650;44.536;18.664;2023-02-02T12:57:25;10.70;69.10
52765;DHT22;38650;44.536;18.664;2023-02-02T13:03:21;10.50;69.30
52765;DHT22;38650;44.536;18.664;2023-02-02T13:06:09;10.60;68.90
52765;DHT22;38650;44.536;18.664;2023-02-02T13:08:52;10.60;68.50
52765;DHT22;38650;44.536;18.664;2023-02-02T13:11:31;10.50;71.10
52765;DHT22;38650;44.536;18.664;2023-02-02T13:14:01;10.40;69.80
52765;DHT22;38650;44.536;18.664;2023-02-02T13:16:30;10.40;69.60
52765;DHT22;38650;44.536;18.664;2023-02-02T13:19:11;10.50;69.70
52765;DHT22;38650;44.536;18.664;2023-02-02T13:21:38;10.70;68.90
52765;DHT22;38650;44.536;18.664;2023-02-02T13:24:09;10.80;68.70
52765;DHT22;38650;44.536;18.664;2023-02-02T13:26:40;10.90;68.10
52765;DHT22;38650;44.536;18.664;2023-02-02T13:31:49;10.90;68.10
52765;DHT22;38650;44.536;18.664;2023-02-02T13:34:34;10.80;67.90
52765;DHT22;38650;44.536;18.664;2023-02-02T13:37:39;10.80;68.40
52765;DHT22;38650;44.536;18.664;2023-02-02T13:40:37;10.80;68.80
52765;DHT22;38650;44.536;18.664;2023-02-02T13:43:42;10.70;68.00
52765;DHT22;38650;44.536;18.664;2023-02-02T13:49:19;10.70;68.30
52765;DHT22;38650;44.536;18.664;2023-02-02T14:02:49;10.80;70.00
52765;DHT22;38650;44.536;18.664;2023-02-02T14:08:02;10.70;69.40
52765;DHT22;38650;44.536;18.664;2023-02-02T14:16:03;10.70;71.90
52765;DHT22;38650;44.536;18.664;2023-02-02T14:18:59;10.90;71.40
52765;DHT22;38650;44.536;18.664;2023-02-02T14:27:00;11.20;70.30
52765;DHT22;38650;44.536;18.664;2023-02-02T14:32:26;11.40;68.50
52765;DHT22;38650;44.536;18.664;2023-02-02T14:34:50;11.50;68.80
52765;DHT22;38650;44.536;18.664;2023-02-02T14:50:47;11.10;63.70
52765;DHT22;38650;44.536;18.664;2023-02-02T14:55:58;11.00;62.80
52765;DHT22;38650;44.536;18.664;2023-02-02T15:06:36;10.80;60.30
52765;DHT22;38650;44.536;18.664;2023-02-02T15:14:39;10.60;63.80
52765;DHT22;38650;44.536;18.664;2023-02-02T15:23:06;10.60;61.30
52765;DHT22;38650;44.536;18.664;2023-02-02T15:31:06;10.40;59.30
52765;DHT22;38650;44.536;18.664;2023-02-02T15:33:50;10.40;59.30
52765;DHT22;38650;44.536;18.664;2023-02-02T15:36:24;10.30;59.70
52765;DHT22;38650;44.536;18.664;2023-02-02T15:38:53;10.20;59.50
52765;DHT22;38650;44.536;18.664;2023-02-02T15:41:24;10.20;60.20
52765;DHT22;38650;44.536;18.664;2023-02-02T15:43:50;10.20;60.00
52765;DHT22;38650;44.536;18.664;2023-02-02T15:46:20;10.20;60.20
52765;DHT22;38650;44.536;18.664;2023-02-02T15:49:28;10.20;60.90
52765;DHT22;38650;44.536;18.664;2023-02-02T15:51:58;10.10;61.20
52765;DHT22;38650;44.536;18.664;2023-02-02T15:56:51;10.10;62.20
52765;DHT22;38650;44.536;18.664;2023-02-02T15:59:48;10.00;63.20
52765;DHT22;38650;44.536;18.664;2023-02-02T16:02:38;10.00;63.60
52765;DHT22;38650;44.536;18.664;2023-02-02T16:05:25;10.00;63.80
52765;DHT22;38650;44.536;18.664;2023-02-02T16:08:05;9.90;64.30
52765;DHT22;38650;44.536;18.664;2023-02-02T16:10:33;9.90;64.60
52765;DHT22;38650;44.536;18.664;2023-02-02T16:12:59;9.90;64.70
52765;DHT22;38650;44.536;18.664;2023-02-02T16:15:27;10.00;65.20
52765;DHT22;38650;44.536;18.664;2023-02-02T16:17:58;10.00;64.90
52765;DHT22;38650;44.536;18.664;2023-02-02T16:20:25;10.10;65.00
52765;DHT22;38650;44.536;18.664;2023-02-02T16:22:53;10.00;66.00
52765;DHT22;38650;44.536;18.664;2023-02-02T16:25:21;10.00;65.60
52765;DHT22;38650;44.536;18.664;2023-02-02T16:27:48;10.00;65.60
52765;DHT22;38650;44.536;18.664;2023-02-02T16:30:37;9.90;66.00
52765;DHT22;38650;44.536;18.664;2023-02-02T16:33:38;10.00;66.30
52765;DHT22;38650;44.536;18.664;2023-02-02T16:36:21;9.70;70.50
52765;DHT22;38650;44.536;18.664;2023-02-02T16:38:48;9.50;73.50
52765;DHT22;38650;44.536;18.664;2023-02-02T16:41:35;9.30;75.50
52765;DHT22;38650;44.536;18.664;2023-02-02T16:44:28;9.20;76.80
52765;DHT22;38650;44.536;18.664;2023-02-02T16:46:55;9.10;78.00
52765;DHT22;38650;44.536;18.664;2023-02-02T16:49:23;8.90;80.40
52765;DHT22;38650;44.536;18.664;2023-02-02T16:52:08;8.80;82.70
52765;DHT22;38650;44.536;18.664;2023-02-02T16:54:34;8.70;83.70
52765;DHT22;38650;44.536;18.664;2023-02-02T16:57:02;8.70;85.70
52765;DHT22;38650;44.536;18.664;2023-02-02T16:59:36;8.60;86.20
52765;DHT22;38650;44.536;18.664;2023-02-02T17:02:49;8.50;87.30
52765;DHT22;38650;44.536;18.664;2023-02-02T17:04:55;8.40;91.20
52765;DHT22;38650;44.536;18.664;2023-02-02T17:07:22;8.40;91.30
52765;DHT22;38650;44.536;18.664;2023-02-02T17:09:48;8.40;91.30
52765;DHT22;38650;44.536;18.664;2023-02-02T17:14:52;8.60;90.90
52765;DHT22;38650;44.536;18.664;2023-02-02T17:17:19;8.60;88.90
52765;DHT22;38650;44.536;18.664;2023-02-02T17:19:44;8.50;91.30
52765;DHT22;38650;44.536;18.664;2023-02-02T17:22:13;8.50;92.50
52765;DHT22;38650;44.536;18.664;2023-02-02T17:24:45;8.30;94.10
52765;DHT22;38650;44.536;18.664;2023-02-02T17:27:19;8.20;95.60
52765;DHT22;38650;44.536;18.664;2023-02-02T17:29:46;8.10;96.90
52765;DHT22;38650;44.536;18.664;2023-02-02T17:32:12;8.00;96.60
52765;DHT22;38650;44.536;18.664;2023-02-02T17:34:38;8.00;97.70
52765;DHT22;38650;44.536;18.664;2023-02-02T17:37:04;8.10;97.90
52765;DHT22;38650;44.536;18.664;2023-02-02T17:39:30;7.90;99.50
52765;DHT22;38650;44.536;18.664;2023-02-02T17:41:56;7.80;97.70
52765;DHT22;38650;44.536;18.664;2023-02-02T17:44:21;8.00;96.60
52765;DHT22;38650;44.536;18.664;2023-02-02T17:46:47;8.20;95.50
52765;DHT22;38650;44.536;18.664;2023-02-02T17:49:13;8.40;95.00
52765;DHT22;38650;44.536;18.664;2023-02-02T17:51:39;8.60;94.30
52765;DHT22;38650;44.536;18.664;2023-02-02T17:54:12;8.70;92.50
52765;DHT22;38650;44.536;18.664;2023-02-02T17:56:39;8.90;91.80
52765;DHT22;38650;44.536;18.664;2023-02-02T17:59:05;9.00;91.50
52765;DHT22;38650;44.536;18.664;2023-02-02T18:01:31;9.10;90.90
52765;DHT22;38650;44.536;18.664;2023-02-02T18:03:57;9.20;91.60
52765;DHT22;38650;44.536;18.664;2023-02-02T18:06:23;9.00;92.90
52765;DHT22;38650;44.536;18.664;2023-02-02T18:08:49;8.70;94.40
52765;DHT22;38650;44.536;18.664;2023-02-02T18:11:15;8.40;96.20
52765;DHT22;38650;44.536;18.664;2023-02-02T18:13:41;8.30;97.00
52765;DHT22;38650;44.536;18.664;2023-02-02T18:16:08;8.30;97.30
52765;DHT22;38650;44.536;18.664;2023-02-02T18:18:34;8.20;98.80
52765;DHT22;38650;44.536;18.664;2023-02-02T18:21:00;8.10;99.60
52765;DHT22;38650;44.536;18.664;2023-02-02T18:23:27;8.20;98.40
52765;DHT22;38650;44.536;18.664;2023-02-02T18:25:52;8.30;98.70
52765;DHT22;38650;44.536;18.664;2023-02-02T18:28:18;8.30;98.90
52765;DHT22;38650;44.536;18.664;2023-02-02T18:30:45;8.30;99.30
52765;DHT22;38650;44.536;18.664;2023-02-02T18:33:12;8.30;99.90
52765;DHT22;38650;44.536;18.664;2023-02-02T18:35:42;8.30;96.40
52765;DHT22;38650;44.536;18.664;2023-02-02T18:38:09;8.40;98.50
52765;DHT22;38650;44.536;18.664;2023-02-02T18:40:35;8.40;97.20
52765;DHT22;38650;44.536;18.664;2023-02-02T18:43:00;8.50;94.70
52765;DHT22;38650;44.536;18.664;2023-02-02T18:45:26;8.60;93.70
52765;DHT22;38650;44.536;18.664;2023-02-02T18:47:53;8.80;92.10
52765;DHT22;38650;44.536;18.664;2023-02-02T18:50:19;8.90;91.80
52765;DHT22;38650;44.536;18.664;2023-02-02T18:52:46;9.00;91.80
52765;DHT22;38650;44.536;18.664;2023-02-02T18:55:12;9.00;91.00
52765;DHT22;38650;44.536;18.664;2023-02-02T18:57:37;9.10;90.50
52765;DHT22;38650;44.536;18.664;2023-02-02T19:00:04;9.10;90.20
52765;DHT22;38650;44.536;18.664;2023-02-02T19:02:30;9.10;89.30
52765;DHT22;38650;44.536;18.664;2023-02-02T19:04:55;9.10;87.20
52765;DHT22;38650;44.536;18.664;2023-02-02T19:07:39;9.10;86.50
52765;DHT22;38650;44.536;18.664;2023-02-02T19:10:24;9.10;87.20
52765;DHT22;38650;44.536;18.664;2023-02-02T19:15:36;9.10;87.00
52765;DHT22;38650;44.536;18.664;2023-02-02T19:18:06;9.10;87.40
52765;DHT22;38650;44.536;18.664;2023-02-02T19:20:35;9.10;87.00
52765;DHT22;38650;44.536;18.664;2023-02-02T19:25:34;9.20;86.60
52765;DHT22;38650;44.536;18.664;2023-02-02T19:28:32;9.10;86.10
52765;DHT22;38650;44.536;18.664;2023-02-02T19:31:00;9.10;86.30
52765;DHT22;38650;44.536;18.664;2023-02-02T19:35:58;9.10;86.60
52765;DHT22;38650;44.536;18.664;2023-02-02T19:38:25;9.10;86.50
52765;DHT22;38650;44.536;18.664;2023-02-02T19:40:54;9.10;87.40
52765;DHT22;38650;44.536;18.664;2023-02-02T19:45:45;9.00;90.00
52765;DHT22;38650;44.536;18.664;2023-02-02T19:48:32;8.70;90.10
52765;DHT22;38650;44.536;18.664;2023-02-02T19:50:59;8.50;91.30
52765;DHT22;38650;44.536;18.664;2023-02-02T19:53:36;8.40;91.80
52765;DHT22;38650;44.536;18.664;2023-02-02T19:56:23;8.40;93.20
52765;DHT22;38650;44.536;18.664;2023-02-02T19:58:49;8.30;95.10
52765;DHT22;38650;44.536;18.664;2023-02-02T20:01:18;8.10;95.10
52765;DHT22;38650;44.536;18.664;2023-02-02T20:03:44;7.90;96.40
52765;DHT22;38650;44.536;18.664;2023-02-02T20:06:25;7.90;97.20
52765;DHT22;38650;44.536;18.664;2023-02-02T20:08:51;7.90;97.90
52765;DHT22;38650;44.536;18.664;2023-02-02T20:11:35;7.80;98.20
52765;DHT22;38650;44.536;18.664;2023-02-02T20:19:23;7.90;99.10
52765;DHT22;38650;44.536;18.664;2023-02-02T20:21:51;7.90;99.10
52765;DHT22;38650;44.536;18.664;2023-02-02T20:24:29;7.90;99.90
52765;DHT22;38650;44.536;18.664;2023-02-02T20:27:21;7.90;99.80
52765;DHT22;38650;44.536;18.664;2023-02-02T20:29:49;7.90;99.90